Time;durP1;ratioP1;P1;durP2;ratioP2;P2;SDS_P1;SDS_P2;PMS_P1;PMS_P2;Temp;Humidity;BMP_temperature;BMP_pressure;BME280_temperature;BME280_humidity;BME280_pressure;Samples;Min_cycle;Max_cycle;Signal;HPM_P1;HPM_P2
2022/06/11 00:01:07;;;;;;;1.40;1.30;;;14.00;97.50;14.00;101181.00;;;;4957956;28;92942;-66
2022/06/11 00:03:34;;;;;;;2.10;1.93;;;14.00;97.80;14.00;101185.00;;;;4955524;28;92991;-66
2022/06/11 00:05:59;;;;;;;4.83;1.50;;;14.00;98.00;14.00;101182.00;;;;4952771;28;92940;-68
2022/06/11 00:08:25;;;;;;;2.33;1.93;;;14.00;98.20;13.90;101189.00;;;;4937978;28;119762;-66
2022/06/11 00:10:51;;;;;;;2.37;1.80;;;13.90;98.50;13.90;101190.00;;;;4935639;28;93127;-66
2022/06/11 00:13:22;;;;;;;1.60;1.50;;;13.90;98.70;13.90;101193.00;;;;4936889;28;92929;-67
2022/06/11 00:15:50;;;;;;;1.90;1.50;;;13.80;98.90;13.80;101188.00;;;;4938922;28;94003;-67
2022/06/11 00:18:16;;;;;;;1.53;1.43;;;13.80;99.20;13.80;101187.00;;;;4961624;28;92895;-66
2022/06/11 00:20:42;;;;;;;1.07;1.07;;;13.80;99.40;13.80;101176.00;;;;4935814;28;110342;-66
2022/06/11 00:23:08;;;;;;;2.33;2.10;;;13.80;99.70;13.70;101193.00;;;;4935937;28;102669;-66
2022/06/11 00:25:34;;;;;;;1.23;0.97;;;13.70;99.90;13.70;101182.00;;;;4936451;28;108325;-67
2022/06/11 00:28:02;;;;;;;1.73;1.50;;;13.70;99.90;13.70;101186.00;;;;4936237;28;93373;-67
2022/06/11 00:30:28;;;;;;;1.43;1.33;;;13.60;99.90;13.60;101186.00;;;;4932260;28;92984;-66
2022/06/11 00:32:55;;;;;;;2.40;1.40;;;13.60;99.90;13.50;101186.00;;;;4948229;28;103325;-66
2022/06/11 00:35:23;;;;;;;1.73;1.63;;;13.50;99.90;13.40;101189.00;;;;4956073;28;92883;-66
2022/06/11 00:37:49;;;;;;;1.60;1.50;;;13.40;99.90;13.40;101181.00;;;;4953198;28;94437;-66
2022/06/11 00:40:22;;;;;;;1.97;1.80;;;13.40;99.90;13.30;101180.00;;;;4956886;28;122532;-66
2022/06/11 00:42:51;;;;;;;1.90;1.80;;;13.30;99.90;13.30;101182.00;;;;4957827;28;92934;-68
2022/06/11 00:45:27;;;;;;;1.27;1.27;;;13.30;99.90;13.30;101190.00;;;;4959642;28;92737;-68
2022/06/11 00:48:03;;;;;;;4.37;2.30;;;13.20;99.90;13.20;101176.00;;;;4958326;28;93335;-67
2022/06/11 00:50:49;;;;;;;3.13;2.03;;;13.20;99.90;13.10;101173.00;;;;4939248;28;93747;-67
2022/06/11 00:53:23;;;;;;;2.47;1.70;;;13.20;99.90;13.20;101170.00;;;;4943043;28;92991;-67
2022/06/11 00:55:50;;;;;;;2.27;1.77;;;13.20;99.90;13.20;101177.00;;;;4971205;28;99584;-66
2022/06/11 00:58:21;;;;;;;1.70;1.60;;;13.10;99.90;13.10;101174.00;;;;4955672;28;122978;-66
2022/06/11 01:00:53;;;;;;;2.10;1.90;;;13.10;99.90;13.10;101161.00;;;;4941353;28;92793;-66
2022/06/11 01:03:44;;;;;;;1.90;1.80;;;13.20;99.90;13.10;101168.00;;;;4955821;28;99168;-67
2022/06/11 01:06:53;;;;;;;2.13;1.93;;;13.10;99.90;13.00;101157.00;;;;4955927;28;93926;-67
2022/06/11 01:10:04;;;;;;;1.83;1.73;;;13.00;99.90;12.90;101163.00;;;;4970018;28;93014;-66
2022/06/11 01:12:50;;;;;;;2.47;2.23;;;13.00;99.90;12.90;101155.00;;;;4970105;28;93609;-67
2022/06/11 01:15:25;;;;;;;3.70;2.37;;;12.90;99.90;12.80;101164.00;;;;4970932;28;102547;-67
2022/06/11 01:18:47;;;;;;;1.90;1.73;;;12.80;99.90;12.70;101166.00;;;;4955240;28;99205;-66
2022/06/11 01:21:41;;;;;;;1.37;1.27;;;12.80;99.90;12.60;101172.00;;;;4939526;28;92862;-67
2022/06/11 01:24:32;;;;;;;1.93;1.53;;;12.70;99.90;12.60;101168.00;;;;4928730;28;94954;-69
2022/06/11 01:27:24;;;;;;;2.20;1.93;;;12.70;99.90;12.60;101163.00;;;;4973410;28;95853;-66
2022/06/11 01:29:54;;;;;;;2.10;1.93;;;12.60;99.90;12.60;101164.00;;;;4963372;28;102272;-67
2022/06/11 01:32:40;;;;;;;1.33;1.10;;;12.60;99.90;12.60;101172.00;;;;4938865;28;93280;-66
2022/06/11 01:35:29;;;;;;;2.17;2.07;;;12.60;99.90;12.50;101170.00;;;;4940496;28;93793;-67
2022/06/11 01:38:06;;;;;;;1.60;1.50;;;12.60;99.90;12.50;101158.00;;;;4972602;28;93279;-66
2022/06/11 01:41:10;;;;;;;1.70;1.60;;;12.50;99.90;12.40;101158.00;;;;4938400;28;93051;-67
2022/06/11 01:43:41;;;;;;;2.10;1.90;;;12.50;99.90;12.40;101168.00;;;;4973155;28;92834;-67
2022/06/11 01:46:18;;;;;;;2.43;1.97;;;12.40;99.90;12.40;101158.00;;;;4957032;28;93329;-67
2022/06/11 01:49:02;;;;;;;2.17;1.97;;;12.40;99.90;12.30;101163.00;;;;4949554;28;92810;-67
2022/06/11 01:51:48;;;;;;;3.93;2.17;;;12.40;99.90;12.30;101163.00;;;;4958548;28;98286;-67
2022/06/11 01:54:35;;;;;;;2.10;1.90;;;12.30;99.90;12.30;101162.00;;;;4949485;28;92435;-67
2022/06/11 01:57:59;;;;;;;3.03;2.20;;;12.40;99.90;12.20;101159.00;;;;4974846;28;92647;-67
2022/06/11 02:00:35;;;;;;;2.37;1.80;;;12.30;99.90;12.20;101159.00;;;;4960649;28;92676;-68
2022/06/11 02:03:29;;;;;;;1.77;1.67;;;12.20;99.90;12.10;101161.00;;;;4971353;28;93943;-67
2022/06/11 02:06:05;;;;;;;1.57;1.40;;;12.20;99.90;12.00;101159.00;;;;4938508;28;93155;-67
2022/06/11 02:09:20;;;;;;;2.00;1.50;;;12.00;99.90;11.90;101173.00;;;;4959606;28;92976;-67
2022/06/11 02:11:58;;;;;;;3.77;2.03;;;12.00;99.90;11.90;101170.00;;;;4957115;28;93104;-67
2022/06/11 02:14:36;;;;;;;2.20;2.00;;;12.00;99.90;11.90;101163.00;;;;4968108;28;92739;-67
2022/06/11 02:17:12;;;;;;;2.13;1.97;;;11.90;99.90;11.90;101160.00;;;;4972942;28;92524;-67
2022/06/11 02:19:53;;;;;;;4.60;1.80;;;11.90;99.90;11.80;101158.00;;;;4972008;28;101361;-67
2022/06/11 02:22:42;;;;;;;1.67;1.57;;;11.80;99.90;11.80;101172.00;;;;4991418;28;91194;-67
2022/06/11 02:25:43;;;;;;;2.13;1.93;;;11.90;99.90;11.80;101165.00;;;;5007282;28;92513;-68
2022/06/11 02:28:15;;;;;;;3.17;1.97;;;11.90;99.90;11.80;101161.00;;;;4970618;28;94488;-67
2022/06/11 02:30:45;;;;;;;3.77;2.23;;;11.80;99.90;11.80;101171.00;;;;5005186;28;109881;-67
2022/06/11 02:33:31;;;;;;;3.10;1.97;;;11.80;99.90;11.80;101174.00;;;;4972576;28;92523;-67
2022/06/11 02:36:13;;;;;;;9.60;2.60;;;11.80;99.90;11.70;101174.00;;;;5005908;28;92520;-67
2022/06/11 02:38:40;;;;;;;3.77;2.17;;;11.80;99.90;11.70;101169.00;;;;4971921;28;105461;-67
2022/06/11 02:41:14;;;;;;;2.33;2.13;;;11.70;99.90;11.70;101173.00;;;;4971730;28;92359;-68
2022/06/11 02:43:40;;;;;;;2.30;2.10;;;11.70;99.90;11.60;101173.00;;;;5001344;28;92568;-67
2022/06/11 02:49:01;;;;;;;2.10;1.90;;;11.60;99.90;11.60;101171.00;;;;4969281;28;92414;-67
2022/06/11 02:51:29;;;;;;;2.60;2.37;;;11.60;99.90;11.50;101176.00;;;;4989579;28;92406;-67
2022/06/11 02:53:54;;;;;;;4.60;2.47;;;11.50;99.90;11.50;101168.00;;;;4990798;28;92506;-67
2022/06/11 02:56:21;;;;;;;2.00;1.80;;;11.50;99.90;11.50;101176.00;;;;5006509;28;93419;-67
2022/06/11 02:58:47;;;;;;;4.93;2.13;;;11.50;99.90;11.50;101178.00;;;;4989913;28;94229;-67
2022/06/11 03:01:14;;;;;;;4.40;1.60;;;11.50;99.90;11.50;101175.00;;;;4990925;28;96544;-67
2022/06/11 03:03:40;;;;;;;2.67;2.07;;;11.50;99.90;11.50;101179.00;;;;4986047;28;92345;-67
2022/06/11 03:06:06;;;;;;;2.30;2.10;;;11.50;99.90;11.50;101189.00;;;;4973777;28;106151;-67
2022/06/11 03:08:32;;;;;;;2.57;1.57;;;11.50;99.90;11.50;101179.00;;;;4989343;28;118145;-67
2022/06/11 03:10:59;;;;;;;4.20;2.50;;;11.50;99.90;11.50;101185.00;;;;4990932;28;93153;-67
2022/06/11 03:13:30;;;;;;;2.77;2.57;;;11.50;99.90;11.50;101188.00;;;;4990265;28;91674;-67
2022/06/11 03:15:57;;;;;;;3.30;2.43;;;11.50;99.90;11.50;101186.00;;;;5006290;28;92451;-67
2022/06/11 03:18:23;;;;;;;2.90;2.50;;;11.50;99.90;11.50;101181.00;;;;4988091;28;94808;-67
2022/06/11 03:20:50;;;;;;;2.43;1.87;;;11.50;99.90;11.50;101181.00;;;;4990490;28;93297;-67
2022/06/11 03:23:17;;;;;;;2.07;1.97;;;11.70;99.90;11.50;101183.00;;;;4989584;28;92512;-67
2022/06/11 03:25:44;;;;;;;3.30;2.93;;;11.50;99.90;11.50;101186.00;;;;4991202;28;92493;-67
2022/06/11 03:28:17;;;;;;;2.47;2.23;;;11.50;99.90;11.60;101187.00;;;;4971709;28;93031;-67
2022/06/11 03:30:44;;;;;;;3.10;2.77;;;11.50;99.90;11.60;101190.00;;;;4990182;28;93364;-67
2022/06/11 03:33:10;;;;;;;2.63;2.43;;;11.60;99.90;11.70;101189.00;;;;4989702;28;92299;-67
2022/06/11 03:35:36;;;;;;;3.23;2.70;;;11.60;99.90;11.70;101191.00;;;;5005378;28;106603;-67
2022/06/11 03:38:03;;;;;;;4.77;3.43;;;11.70;99.90;11.70;101199.00;;;;5005433;28;91868;-67
2022/06/11 03:40:29;;;;;;;3.53;3.07;;;11.70;99.90;11.80;101191.00;;;;4990297;28;92416;-67
2022/06/11 03:42:55;;;;;;;2.97;1.77;;;11.80;99.90;11.90;101201.00;;;;4988286;28;108108;-68
2022/06/11 03:45:21;;;;;;;2.70;2.10;;;11.80;99.90;11.90;101191.00;;;;4972015;28;93030;-66
2022/06/11 03:47:47;;;;;;;3.60;3.30;;;11.90;99.90;12.00;101200.00;;;;4988974;28;93640;-67
2022/06/11 03:50:21;;;;;;;3.93;3.37;;;11.90;99.90;12.00;101202.00;;;;4989201;28;121575;-67
2022/06/11 03:52:47;;;;;;;3.33;2.77;;;12.00;99.90;12.00;101202.00;;;;5004334;28;92383;-67
2022/06/11 03:55:13;;;;;;;2.90;2.30;;;12.00;99.90;12.10;101199.00;;;;4989342;28;107605;-67
2022/06/11 03:57:39;;;;;;;3.47;2.60;;;12.00;99.90;12.10;101200.00;;;;5004567;28;99296;-67
2022/06/11 04:00:10;;;;;;;2.23;2.10;;;12.10;99.90;12.20;101209.00;;;;4971949;28;92559;-67
2022/06/11 04:02:36;;;;;;;2.07;1.87;;;12.10;99.90;12.20;101205.00;;;;4988929;28;91610;-66
2022/06/11 04:05:04;;;;;;;2.57;2.37;;;12.20;99.90;12.30;101208.00;;;;4987789;28;111337;-67
2022/06/11 04:07:36;;;;;;;3.03;2.73;;;12.30;99.90;12.40;101209.00;;;;4989263;28;100626;-67
2022/06/11 04:10:15;;;;;;;3.40;2.73;;;12.40;99.90;12.50;101207.00;;;;4988948;28;94264;-66
2022/06/11 04:12:41;;;;;;;3.13;2.83;;;12.40;99.90;12.70;101206.00;;;;4988778;28;108241;-67
2022/06/11 04:15:07;;;;;;;3.03;2.83;;;12.60;99.90;12.80;101209.00;;;;4993221;28;107761;-67
2022/06/11 04:17:33;;;;;;;2.57;2.33;;;12.70;99.90;12.90;101210.00;;;;4973008;28;116983;-67
2022/06/11 04:19:59;;;;;;;3.37;2.63;;;12.80;99.90;13.10;101201.00;;;;4992497;28;121438;-65
2022/06/11 04:22:25;;;;;;;2.83;2.63;;;12.90;99.90;13.30;101212.00;;;;4992225;28;92647;-66
2022/06/11 04:24:51;;;;;;;3.90;2.67;;;13.10;99.90;13.40;101211.00;;;;4992506;28;92591;-67
2022/06/11 04:27:19;;;;;;;3.03;2.40;;;13.30;99.90;13.60;101213.00;;;;4974869;28;91607;-66
2022/06/11 04:29:52;;;;;;;3.23;2.93;;;13.40;99.90;13.70;101210.00;;;;4992194;28;113650;-68
2022/06/11 04:32:19;;;;;;;1.70;1.60;;;13.60;99.90;13.90;101220.00;;;;4992374;28;92405;-66
2022/06/11 04:34:47;;;;;;;3.57;2.80;;;13.70;99.90;14.00;101205.00;;;;4992881;28;93503;-66
2022/06/11 04:37:21;;;;;;;4.13;2.30;;;13.90;99.90;14.20;101211.00;;;;4991742;28;92578;-67
2022/06/11 04:39:52;;;;;;;2.27;2.07;;;14.10;99.90;14.40;101211.00;;;;4991290;28;99323;-67
2022/06/11 04:42:19;;;;;;;4.30;2.70;;;14.20;99.90;14.60;101208.00;;;;4992102;28;92240;-67
2022/06/11 04:44:46;;;;;;;2.53;2.33;;;14.40;99.90;14.80;101208.00;;;;4992483;28;92749;-68
2022/06/11 04:47:22;;;;;;;2.50;2.30;;;14.60;99.90;15.00;101218.00;;;;4992909;28;93611;-67
2022/06/11 04:49:51;;;;;;;4.40;2.17;;;14.80;99.90;15.20;101209.00;;;;4993415;28;93602;-67
2022/06/11 04:52:17;;;;;;;2.28;2.03;;;15.00;99.90;15.30;101206.00;;;;4997176;28;91207;-65
2022/06/11 04:54:43;;;;;;;3.05;2.55;;;15.20;99.90;15.50;101210.00;;;;4992528;28;91979;-67
2022/06/11 04:57:09;;;;;;;3.97;2.03;;;15.30;99.90;15.70;101213.00;;;;4992324;28;121669;-67
2022/06/11 04:59:35;;;;;;;1.98;1.75;;;15.50;99.90;15.90;101220.00;;;;4991974;28;93375;-66
2022/06/11 05:02:03;;;;;;;1.85;1.40;;;15.70;99.90;16.00;101218.00;;;;4991462;28;110985;-67
2022/06/11 05:04:29;;;;;;;3.00;2.30;;;15.80;99.90;16.20;101219.00;;;;4974551;28;92622;-67
2022/06/11 05:06:54;;;;;;;2.05;1.88;;;16.00;99.90;16.40;101218.00;;;;4991726;28;121757;-67
2022/06/11 05:09:23;;;;;;;1.83;1.73;;;16.20;99.90;16.60;101227.00;;;;4990618;28;121869;-67
2022/06/11 05:11:51;;;;;;;2.13;1.92;;;16.40;99.90;16.80;101225.00;;;;4962011;28;92684;-67
2022/06/11 05:14:18;;;;;;;2.33;2.13;;;16.60;99.90;17.00;101218.00;;;;4990714;28;92422;-67
2022/06/11 05:16:46;;;;;;;4.88;2.58;;;16.80;99.90;17.20;101232.00;;;;5007328;28;92034;-67
2022/06/11 05:19:15;;;;;;;2.63;2.15;;;17.00;99.90;17.40;101227.00;;;;4998246;28;108184;-66
2022/06/11 05:21:41;;;;;;;1.83;1.70;;;17.20;99.90;17.50;101235.00;;;;5000205;28;92532;-67
2022/06/11 05:24:08;;;;;;;1.63;1.52;;;17.30;99.90;17.70;101234.00;;;;4995255;28;93747;-67
2022/06/11 05:26:41;;;;;;;2.10;1.88;;;17.50;99.90;17.90;101242.00;;;;5002212;28;92476;-67
2022/06/11 05:29:07;;;;;;;3.38;1.67;;;17.60;99.90;18.00;101241.00;;;;4981468;28;115359;-66
2022/06/11 05:31:33;;;;;;;2.38;1.85;;;17.80;99.90;18.20;101238.00;;;;4989362;28;109317;-66
2022/06/11 05:33:59;;;;;;;1.63;1.52;;;18.00;99.90;18.30;101243.00;;;;4999879;28;92590;-66
2022/06/11 05:36:25;;;;;;;1.30;1.20;;;18.10;99.90;18.60;101249.00;;;;5006492;28;92443;-66
2022/06/11 05:38:51;;;;;;;2.35;2.15;;;18.30;99.90;18.80;101249.00;;;;5006055;28;93470;-66
2022/06/11 05:41:17;;;;;;;2.30;2.08;;;18.50;99.90;19.00;101253.00;;;;4986149;28;102562;-67
2022/06/11 05:43:44;;;;;;;2.10;1.42;;;18.80;99.90;19.20;101245.00;;;;4994151;28;108386;-68
2022/06/11 05:46:16;;;;;;;2.78;1.73;;;19.00;99.90;19.30;101246.00;;;;4976993;28;92707;-67
2022/06/11 05:48:48;;;;;;;1.67;1.45;;;19.10;99.50;19.40;101247.00;;;;4978710;28;94052;-65
2022/06/11 05:51:20;;;;;;;1.20;1.10;;;19.20;99.20;19.60;101239.00;;;;4987508;28;94522;-65
2022/06/11 05:53:47;;;;;;;2.47;1.85;;;19.40;98.80;19.80;101249.00;;;;4998307;28;101031;-65
2022/06/11 05:56:13;;;;;;;2.45;1.40;;;19.60;98.40;20.00;101248.00;;;;4971002;28;115197;-65
2022/06/11 05:58:48;;;;;;;6.07;1.30;;;19.70;97.80;20.20;101253.00;;;;5000792;28;122894;-65
2022/06/11 06:01:18;;;;;;;1.70;1.40;;;20.00;96.90;20.40;101245.00;;;;4981253;28;98255;-66
2022/06/11 06:03:44;;;;;;;2.15;1.40;;;20.20;96.50;20.70;101252.00;;;;4992400;28;92827;-65
2022/06/11 06:06:09;;;;;;;1.50;1.40;;;20.40;95.90;20.90;101249.00;;;;4999976;28;122109;-67
2022/06/11 06:08:35;;;;;;;1.58;1.33;;;20.60;95.30;21.10;101240.00;;;;4981575;28;120325;-68
2022/06/11 06:11:01;;;;;;;2.42;1.48;;;20.90;94.60;21.40;101257.00;;;;5000000;28;109495;-67
2022/06/11 06:16:11;;;;;;;1.63;1.27;;;21.40;93.00;22.00;101263.00;;;;4997293;28;92341;-67
2022/06/11 06:18:37;;;;;;;1.38;1.27;;;21.70;92.10;22.20;101256.00;;;;4998436;28;122176;-66
2022/06/11 06:21:03;;;;;;;0.95;0.90;;;22.00;91.20;22.40;101255.00;;;;5006042;28;92374;-67
2022/06/11 06:23:34;;;;;;;1.38;1.10;;;22.10;90.10;22.60;101255.00;;;;5000378;28;93610;-67
2022/06/11 06:26:00;;;;;;;2.05;1.38;;;22.30;88.00;22.70;101249.00;;;;4995322;28;108504;-67
2022/06/11 06:28:26;;;;;;;1.20;1.10;;;22.50;85.20;22.90;101256.00;;;;4981188;28;93201;-66
2022/06/11 06:30:52;;;;;;;4.18;1.40;;;22.70;83.80;23.10;101257.00;;;;5002234;28;103098;-69
2022/06/11 06:33:18;;;;;;;1.27;1.15;;;22.80;82.30;23.30;101263.00;;;;5000533;28;92456;-67
2022/06/11 06:35:43;;;;;;;2.80;1.25;;;23.00;81.60;23.50;101260.00;;;;5000200;28;122409;-68
2022/06/11 06:38:12;;;;;;;5.35;1.05;;;23.30;80.00;23.70;101262.00;;;;4999050;28;121290;-66
2022/06/11 06:40:38;;;;;;;2.88;1.08;;;23.50;77.30;23.80;101259.00;;;;4999920;28;109501;-66
2022/06/11 06:43:04;;;;;;;1.27;1.17;;;23.50;76.60;23.90;101256.00;;;;5004562;28;107944;-66
2022/06/11 06:45:30;;;;;;;1.05;0.98;;;23.70;75.80;24.00;101256.00;;;;5006810;28;93876;-66
2022/06/11 06:47:55;;;;;;;0.60;0.60;;;23.80;75.10;24.10;101265.00;;;;4993396;28;117835;-66
2022/06/11 06:50:21;;;;;;;0.90;0.90;;;23.90;73.80;24.30;101267.00;;;;5006421;28;92468;-66
2022/06/11 06:52:47;;;;;;;2.22;1.17;;;24.00;72.40;24.50;101265.00;;;;5003673;28;109424;-67
2022/06/11 06:55:13;;;;;;;2.25;1.08;;;24.20;70.90;24.60;101263.00;;;;5000526;28;119573;-68
2022/06/11 06:57:39;;;;;;;1.85;0.95;;;24.40;70.00;24.90;101270.00;;;;4999238;28;121741;-67
2022/06/11 07:00:07;;;;;;;0.88;0.88;;;24.60;69.60;25.10;101258.00;;;;5005288;28;95330;-67
2022/06/11 07:02:33;;;;;;;11.40;1.17;;;24.80;69.20;25.30;101259.00;;;;5003324;28;97513;-68
2022/06/11 07:04:59;;;;;;;3.40;1.38;;;25.00;69.30;25.50;101257.00;;;;4974310;28;114173;-66
2022/06/11 07:07:26;;;;;;;3.95;1.20;;;25.20;68.60;25.70;101260.00;;;;4999744;28;92538;-66
2022/06/11 07:09:58;;;;;;;1.70;0.90;;;25.40;67.70;26.00;101264.00;;;;4989930;28;104893;-68
2022/06/11 07:12:24;;;;;;;2.30;1.08;;;25.70;66.30;26.20;101267.00;;;;4997009;28;93808;-66
2022/06/11 07:14:49;;;;;;;1.98;0.80;;;25.90;65.40;26.50;101264.00;;;;5000274;28;92607;-66
2022/06/11 07:17:17;;;;;;;0.70;0.70;;;26.20;64.60;26.80;101265.00;;;;4997924;28;120693;-67
2022/06/11 07:19:56;;;;;;;1.38;1.00;;;26.40;63.80;27.10;101264.00;;;;5002243;28;110396;-69
2022/06/11 07:22:31;;;;;;;1.00;0.90;;;26.70;62.50;27.40;101260.00;;;;4969316;28;99321;-69
2022/06/11 07:24:59;;;;;;;1.85;1.27;;;27.10;61.00;27.60;101260.00;;;;4980144;28;93005;-69
2022/06/11 07:27:31;;;;;;;3.03;1.10;;;27.30;60.30;27.80;101263.00;;;;4958472;28;113739;-69
2022/06/11 07:30:14;;;;;;;1.55;0.88;;;27.50;59.00;27.90;101255.00;;;;5000717;28;104113;-72
2022/06/11 07:32:45;;;;;;;2.08;1.27;;;27.70;58.10;28.10;101264.00;;;;4986968;28;92663;-68
2022/06/11 07:35:14;;;;;;;2.33;0.98;;;27.90;57.10;28.30;101263.00;;;;5004110;28;114079;-69
2022/06/11 07:37:41;;;;;;;0.80;0.70;;;28.00;56.60;28.50;101258.00;;;;4986937;28;93534;-69
2022/06/11 07:40:09;;;;;;;3.80;1.00;;;28.20;56.30;28.80;101262.00;;;;4977984;28;102253;-69
2022/06/11 07:42:45;;;;;;;0.95;0.63;;;28.40;55.60;28.90;101261.00;;;;5001605;28;92505;-69
2022/06/11 07:45:11;;;;;;;1.20;1.10;;;28.70;54.30;29.10;101264.00;;;;4997007;28;112693;-70
2022/06/11 07:47:55;;;;;;;0.98;0.88;;;28.80;53.50;29.20;101265.00;;;;4981779;28;92616;-70
2022/06/11 07:50:45;;;;;;;0.60;0.60;;;29.00;52.90;29.40;101254.00;;;;5000689;28;92977;-69
2022/06/11 07:53:11;;;;;;;1.05;0.93;;;29.10;52.20;29.50;101259.00;;;;4995745;28;93460;-71
2022/06/11 07:55:40;;;;;;;1.70;1.13;;;29.30;52.00;29.70;101261.00;;;;4986146;28;113708;-70
2022/06/11 07:58:07;;;;;;;2.03;0.93;;;29.40;51.60;29.90;101262.00;;;;4984341;28;92925;-72
2022/06/11 08:00:41;;;;;;;1.40;1.20;;;29.60;51.20;30.00;101259.00;;;;4993494;28;92666;-72
2022/06/11 08:03:08;;;;;;;1.10;0.90;;;29.80;50.30;30.10;101253.00;;;;4997530;28;92512;-70
2022/06/11 08:05:34;;;;;;;0.55;0.50;;;29.80;49.40;30.20;101261.00;;;;4986449;28;93610;-71
2022/06/11 08:08:01;;;;;;;2.13;1.42;;;29.90;49.30;30.20;101253.00;;;;5001160;28;93290;-72
2022/06/11 08:10:28;;;;;;;1.00;0.30;;;30.00;47.00;30.30;101259.00;;;;5001375;28;91872;-70
2022/06/11 08:12:54;;;;;;;1.83;0.82;;;30.00;46.30;30.20;101264.00;;;;4981611;28;92505;-71
2022/06/11 08:15:20;;;;;;;2.17;0.60;;;30.00;44.10;30.10;101260.00;;;;5003891;28;106333;-69
2022/06/11 08:17:46;;;;;;;0.65;0.60;;;29.90;44.20;30.00;101252.00;;;;5002277;28;115023;-71
2022/06/11 08:20:16;;;;;;;1.02;0.55;;;29.90;44.30;30.00;101259.00;;;;4997950;28;92578;-69
2022/06/11 08:22:42;;;;;;;0.68;0.63;;;29.90;43.40;29.80;101245.00;;;;4996222;28;92457;-69
2022/06/11 08:25:11;;;;;;;1.73;0.40;;;29.80;41.10;29.60;101246.00;;;;4996422;28;110195;-72
2022/06/11 08:27:37;;;;;;;0.70;0.70;;;29.60;41.50;29.60;101245.00;;;;4979015;28;92543;-69
2022/06/11 08:30:04;;;;;;;0.80;0.60;;;29.50;41.30;29.40;101262.00;;;;4968505;28;109449;-72
2022/06/11 08:32:30;;;;;;;0.47;0.45;;;29.30;41.40;29.30;101250.00;;;;4995274;28;100410;-71
2022/06/11 08:34:56;;;;;;;0.60;0.60;;;29.20;41.30;29.20;101258.00;;;;5002557;28;92954;-71
2022/06/11 08:37:23;;;;;;;1.02;0.73;;;29.10;41.70;29.30;101247.00;;;;5003325;28;111149;-69
2022/06/11 08:39:49;;;;;;;0.60;0.60;;;29.10;42.10;29.50;101242.00;;;;4997913;28;92647;-71
2022/06/11 08:42:39;;;;;;;0.40;0.40;;;29.20;42.30;29.60;101240.00;;;;4998500;28;97147;-70
2022/06/11 08:45:36;;;;;;;0.40;0.40;;;29.40;41.60;29.80;101244.00;;;;4985794;28;92648;-71
2022/06/11 08:48:13;;;;;;;0.75;0.70;;;29.60;40.60;29.80;101245.00;;;;4978947;28;93196;-70
2022/06/11 08:50:51;;;;;;;1.63;0.63;;;29.60;40.50;29.70;101256.00;;;;4991628;28;92016;-71
2022/06/11 08:53:17;;;;;;;0.50;0.50;;;29.50;41.00;29.60;101253.00;;;;4984740;28;101391;-71
2022/06/11 08:55:43;;;;;;;0.75;0.75;;;29.40;40.60;29.40;101252.00;;;;4994738;28;92674;-72
2022/06/11 08:58:34;;;;;;;0.63;0.63;;;29.30;40.60;29.20;101241.00;;;;5003661;28;92433;-72
2022/06/11 09:01:29;;;;;;;0.52;0.52;;;29.20;41.10;29.00;101254.00;;;;4997291;28;94571;-69
2022/06/11 09:04:26;;;;;;;2.55;0.95;;;29.00;41.60;28.80;101246.00;;;;4979674;28;96399;-69
2022/06/11 09:07:42;;;;;;;1.75;0.60;;;28.70;42.20;28.60;101250.00;;;;5006544;28;93223;-71
2022/06/11 09:10:35;;;;;;;1.90;0.95;;;28.50;42.30;28.60;101244.00;;;;4999168;28;93184;-70
2022/06/11 09:13:31;;;;;;;0.60;0.60;;;28.40;42.20;28.60;101246.00;;;;4984018;28;103563;-72
2022/06/11 09:16:20;;;;;;;0.75;0.60;;;28.40;42.10;28.60;101246.00;;;;4988263;28;101357;-68
2022/06/11 09:19:32;;;;;;;1.75;0.50;;;28.30;42.50;28.50;101246.00;;;;4981560;28;92898;-69
2022/06/11 09:22:40;;;;;;;1.38;0.60;;;28.30;42.30;28.30;101245.00;;;;5010737;28;115085;-71
2022/06/11 09:25:18;;;;;;;1.85;0.98;;;28.10;42.30;28.20;101242.00;;;;5007655;28;92758;-70
2022/06/11 09:28:31;;;;;;;0.73;0.73;;;28.00;42.40;28.00;101245.00;;;;5006528;28;92595;-69
2022/06/11 09:31:10;;;;;;;2.17;1.08;;;27.90;42.20;27.90;101239.00;;;;4999052;28;91888;-69
2022/06/11 09:33:44;;;;;;;1.02;0.70;;;27.70;41.90;27.80;101242.00;;;;4981558;28;92738;-71
2022/06/11 09:36:37;;;;;;;1.45;0.95;;;27.60;42.30;27.70;101253.00;;;;4981114;28;92719;-72
2022/06/11 09:39:32;;;;;;;1.10;0.68;;;27.50;42.50;27.50;101253.00;;;;4984335;28;93384;-72
2022/06/11 09:42:34;;;;;;;1.55;0.50;;;27.40;42.80;27.40;101247.00;;;;4973477;28;111957;-70
2022/06/11 09:45:48;;;;;;;0.77;0.50;;;27.30;43.00;27.40;101245.00;;;;5004196;28;108215;-72
2022/06/11 09:48:27;;;;;;;2.45;0.47;;;27.20;43.30;27.40;101242.00;;;;4987438;28;92523;-71
2022/06/11 09:51:30;;;;;;;0.40;0.40;;;27.20;43.10;27.40;101245.00;;;;4979532;28;92798;-72
2022/06/11 09:54:15;;;;;;;0.47;0.47;;;27.20;43.40;27.60;101249.00;;;;4970927;28;100453;-72
2022/06/11 09:57:37;;;;;;;0.40;0.30;;;27.20;43.50;27.80;101247.00;;;;4987252;28;114783;-70
2022/06/11 10:00:22;;;;;;;0.45;0.45;;;27.40;43.50;28.00;101241.00;;;;4999517;28;91438;-72
2022/06/11 10:05:50;;;;;;;0.85;0.47;;;27.80;43.40;28.40;101233.00;;;;4987174;28;92628;-71
2022/06/11 10:08:43;;;;;;;0.43;0.43;;;27.90;43.10;28.60;101239.00;;;;4983687;28;100371;-69
2022/06/11 10:11:22;;;;;;;0.50;0.40;;;28.10;42.90;28.70;101235.00;;;;4997315;28;92392;-69
2022/06/11 10:13:58;;;;;;;0.20;0.20;;;28.20;42.60;28.80;101232.00;;;;4993073;28;92496;-70
2022/06/11 10:16:32;;;;;;;0.30;0.30;;;28.40;42.30;28.80;101236.00;;;;4986526;28;93174;-70
2022/06/11 10:19:11;;;;;;;0.95;0.60;;;28.40;42.20;28.80;101233.00;;;;4979418;28;92703;-72
2022/06/11 10:21:42;;;;;;;0.68;0.65;;;28.40;42.00;28.80;101236.00;;;;4956525;28;105865;-70
2022/06/11 10:24:13;;;;;;;1.17;0.50;;;28.40;41.70;28.90;101227.00;;;;5004203;28;99120;-70
2022/06/11 10:26:58;;;;;;;0.60;0.60;;;28.50;41.90;29.00;101234.00;;;;4997111;28;115998;-70
2022/06/11 10:29:37;;;;;;;0.60;0.52;;;28.60;42.00;29.00;101236.00;;;;4982215;28;97119;-70
2022/06/11 10:32:17;;;;;;;0.95;0.90;;;28.60;41.70;28.80;101245.00;;;;4955532;28;97107;-70
2022/06/11 10:35:00;;;;;;;0.95;0.43;;;28.50;41.50;28.60;101231.00;;;;4967014;28;93565;-69
2022/06/11 10:37:41;;;;;;;1.13;0.50;;;28.40;41.90;28.50;101234.00;;;;4965793;28;92597;-69
2022/06/11 10:40:22;;;;;;;0.60;0.60;;;28.20;42.10;28.30;101232.00;;;;4952588;28;92650;-70
2022/06/11 10:43:04;;;;;;;0.55;0.55;;;28.10;41.90;28.20;101229.00;;;;4939327;28;97229;-71
2022/06/11 10:45:31;;;;;;;0.28;0.25;;;27.90;42.10;28.10;101226.00;;;;4979996;28;93294;-70
2022/06/11 10:47:59;;;;;;;0.35;0.30;;;27.80;42.50;28.10;101225.00;;;;4950069;28;93588;-72
2022/06/11 10:50:36;;;;;;;0.32;0.30;;;27.80;42.70;28.10;101221.00;;;;4981783;28;92708;-69
2022/06/11 10:53:03;;;;;;;1.05;0.40;;;27.80;42.60;28.10;101218.00;;;;4950809;28;109722;-70
2022/06/11 10:55:54;;;;;;;0.40;0.30;;;27.80;42.60;28.20;101224.00;;;;4992086;28;101231;-70
2022/06/11 10:58:43;;;;;;;0.70;0.52;;;27.80;42.30;28.20;101212.00;;;;4974340;28;92948;-71
2022/06/11 11:01:22;;;;;;;0.60;0.50;;;27.90;41.80;28.20;101212.00;;;;4972350;28;93399;-70
2022/06/11 11:04:14;;;;;;;0.40;0.40;;;27.90;41.70;28.10;101222.00;;;;4955012;28;92654;-71
2022/06/11 11:06:41;;;;;;;0.47;0.47;;;27.80;41.60;28.10;101214.00;;;;4976243;28;92031;-71
2022/06/11 11:09:24;;;;;;;0.85;0.68;;;27.80;41.60;28.00;101212.00;;;;4971554;28;95624;-72
2022/06/11 11:11:55;;;;;;;0.43;0.35;;;27.70;41.70;28.10;101208.00;;;;4951419;28;95192;-73
2022/06/11 11:14:42;;;;;;;0.40;0.30;;;27.80;41.20;28.60;101205.00;;;;4981796;28;96565;-70
2022/06/11 11:17:19;;;;;;;0.50;0.40;;;28.10;40.90;29.20;101214.00;;;;4950783;28;92665;-72
2022/06/11 11:22:51;;;;;;;1.27;0.47;;;28.90;39.40;29.50;101202.00;;;;4964415;28;92588;-70
2022/06/11 11:25:27;;;;;;;0.63;0.63;;;29.00;39.00;29.50;101207.00;;;;4997876;28;92494;-73
2022/06/11 11:27:53;;;;;;;0.30;0.30;;;29.10;39.60;29.60;101217.00;;;;4963708;28;99421;-69